createdAt,value
2023-11-23T00:00:55.610Z,12.68
2023-11-23T00:04:08.440Z,13.52
2023-11-23T00:07:20.889Z,10.95
2023-11-23T00:10:33.561Z,13.82
2023-11-23T00:13:45.962Z,11.12
2023-11-23T00:16:58.636Z,11.85
2023-11-23T00:20:11.599Z,9.85
2023-11-23T00:23:24.288Z,11.45
2023-11-23T00:26:36.696Z,11.52
2023-11-23T00:29:49.680Z,11.73
2023-11-23T00:33:02.245Z,9.23
2023-11-23T00:36:15.100Z,9.32
2023-11-23T00:39:27.710Z,9.45
2023-11-23T00:42:40.497Z,9.77
2023-11-23T00:45:52.976Z,9.82
2023-11-23T00:49:06.436Z,9.10
2023-11-23T00:52:18.937Z,10.15
2023-11-23T00:55:31.674Z,10.50
2023-11-23T00:58:44.132Z,9.65
2023-11-23T01:01:57.903Z,10.30
2023-11-23T01:05:12.901Z,11.35
2023-11-23T01:08:25.577Z,10.52
2023-11-23T01:11:39.130Z,11.68
2023-11-23T01:14:51.927Z,11.10
2023-11-23T01:18:05.319Z,10.07
2023-11-23T01:21:18.053Z,10.50
2023-11-23T01:24:30.457Z,11.60
2023-11-23T01:27:43.174Z,10.10
2023-11-23T01:30:55.604Z,9.85
2023-11-23T01:34:08.376Z,10.20
2023-11-23T01:37:20.855Z,9.60
2023-11-23T01:40:36.013Z,10.00
2023-11-23T01:43:48.444Z,9.32
2023-11-23T01:47:01.200Z,9.70
2023-11-23T01:50:14.841Z,10.55
2023-11-23T01:53:27.561Z,10.20
2023-11-23T01:56:40.293Z,10.48
2023-11-23T01:59:53.566Z,12.23
2023-11-23T02:03:06.137Z,10.95
2023-11-23T02:06:21.013Z,11.18
2023-11-23T02:09:33.467Z,9.90
2023-11-23T02:12:49.997Z,9.07
2023-11-23T02:16:02.777Z,10.82
2023-11-23T02:19:15.255Z,10.32
2023-11-23T02:22:28.147Z,13.07
2023-11-23T02:25:40.756Z,14.75
2023-11-23T02:28:53.418Z,12.07
2023-11-23T02:32:10.056Z,9.60
2023-11-23T02:38:35.332Z,9.45
2023-11-23T02:41:48.392Z,9.30
2023-11-23T02:45:00.876Z,15.85
2023-11-23T02:48:13.805Z,11.57
2023-11-23T02:51:26.539Z,9.15
2023-11-23T02:54:39.771Z,9.27
2023-11-23T02:57:52.175Z,8.77
2023-11-23T03:01:06.533Z,10.55
2023-11-23T03:04:19.115Z,10.25
2023-11-23T03:07:31.820Z,10.38
2023-11-23T03:10:44.272Z,10.50
2023-11-23T03:13:58.940Z,9.70
2023-11-23T03:17:11.362Z,9.85
2023-11-23T03:20:24.045Z,10.10
2023-11-23T03:23:36.619Z,10.90
2023-11-23T03:26:49.572Z,10.93
2023-11-23T03:30:02.104Z,9.10
2023-11-23T03:33:16.243Z,9.05
2023-11-23T03:36:28.673Z,10.65
2023-11-23T03:39:43.238Z,9.63
2023-11-23T03:42:55.629Z,10.50
2023-11-23T03:46:09.120Z,10.98
2023-11-23T03:49:21.542Z,11.80
2023-11-23T03:52:34.235Z,10.75
2023-11-23T03:55:47.024Z,10.55
2023-11-23T03:58:59.810Z,11.15
2023-11-23T04:02:12.295Z,10.68
2023-11-23T04:05:25.135Z,10.27
2023-11-23T04:08:37.494Z,10.00
2023-11-23T04:11:50.153Z,9.68
2023-11-23T04:15:02.708Z,14.25
2023-11-23T04:18:15.793Z,19.02
2023-11-23T04:21:28.296Z,16.37
2023-11-23T04:24:42.087Z,16.83
2023-11-23T04:27:55.466Z,13.60
2023-11-23T04:31:08.131Z,8.93
2023-11-23T04:34:20.619Z,8.75
2023-11-23T04:37:33.580Z,9.82
2023-11-23T04:40:45.949Z,10.48
2023-11-23T04:43:58.601Z,9.25
2023-11-23T04:47:11.423Z,9.85
2023-11-23T04:50:24.118Z,9.93
2023-11-23T04:53:36.554Z,9.95
2023-11-23T04:56:51.608Z,9.63
2023-11-23T05:00:05.595Z,8.35
2023-11-23T05:03:18.316Z,9.88
2023-11-23T05:06:30.765Z,11.70
2023-11-23T05:09:43.610Z,13.30
2023-11-23T05:12:55.991Z,12.20
2023-11-23T05:16:09.096Z,10.70
2023-11-23T05:19:31.839Z,10.60
2023-11-23T05:22:52.596Z,10.57
2023-11-23T05:26:05.836Z,9.05
2023-11-23T05:29:18.598Z,9.20
2023-11-23T05:32:30.986Z,10.57
2023-11-23T05:35:43.696Z,9.88
2023-11-23T05:38:56.146Z,9.70
2023-11-23T05:42:09.425Z,9.73
2023-11-23T05:45:21.841Z,9.52
2023-11-23T05:48:34.688Z,9.32
2023-11-23T05:51:47.115Z,9.95
2023-11-23T05:54:59.859Z,9.05
2023-11-23T05:58:12.262Z,9.73
2023-11-23T06:01:27.026Z,8.70
2023-11-23T06:04:42.177Z,9.13
2023-11-23T06:07:54.678Z,8.80
2023-11-23T06:11:07.424Z,8.85
2023-11-23T06:14:19.950Z,8.88
2023-11-23T06:17:32.759Z,11.10
2023-11-23T06:20:45.307Z,9.57
2023-11-23T06:23:59.467Z,9.80
2023-11-23T06:27:12.065Z,10.25
2023-11-23T06:30:24.931Z,10.98
2023-11-23T06:33:37.356Z,9.13
2023-11-23T06:36:52.863Z,12.80
2023-11-23T06:40:05.898Z,9.43
2023-11-23T06:43:18.760Z,10.38
2023-11-23T06:46:31.182Z,11.88
2023-11-23T06:49:44.145Z,14.18
2023-11-23T06:52:58.045Z,11.40
2023-11-23T06:56:14.814Z,11.30
2023-11-23T06:59:27.291Z,11.02
2023-11-23T07:02:40.072Z,9.70
2023-11-23T07:05:52.901Z,9.18
2023-11-23T07:09:05.875Z,10.60
2023-11-23T07:12:19.055Z,9.55
2023-11-23T07:15:31.918Z,10.18
2023-11-23T07:18:44.639Z,9.63
2023-11-23T07:21:57.459Z,10.82
2023-11-23T07:25:10.815Z,10.07
2023-11-23T07:28:26.160Z,11.93
2023-11-23T07:31:40.021Z,12.65
2023-11-23T07:34:53.978Z,11.52
2023-11-23T07:38:06.996Z,11.02
2023-11-23T07:41:19.814Z,10.70
2023-11-23T07:44:32.509Z,10.07
2023-11-23T07:47:45.448Z,10.55
2023-11-23T07:50:58.133Z,9.48
2023-11-23T07:54:11.085Z,10.90
2023-11-23T07:57:23.642Z,9.55
2023-11-23T08:00:39.694Z,9.57
2023-11-23T08:03:52.920Z,8.65
2023-11-23T08:07:06.819Z,9.43
2023-11-23T08:10:20.804Z,10.35
2023-11-23T08:13:33.304Z,8.82
2023-11-23T08:16:45.987Z,9.68
2023-11-23T08:19:58.471Z,10.75
2023-11-23T08:23:13.812Z,11.68
2023-11-23T08:26:27.190Z,10.60
2023-11-23T08:29:40.328Z,11.12
2023-11-23T08:32:52.954Z,10.23
2023-11-23T08:36:06.337Z,10.30
2023-11-23T08:39:20.531Z,11.35
2023-11-23T08:42:34.736Z,10.20
2023-11-23T08:45:47.560Z,11.00
2023-11-23T08:49:01.273Z,10.45
2023-11-23T08:52:14.783Z,11.63
2023-11-23T08:55:27.520Z,11.77
2023-11-23T08:58:40.978Z,11.07
2023-11-23T09:01:59.103Z,10.68
2023-11-23T09:05:18.163Z,9.70
2023-11-23T09:08:30.901Z,10.18
2023-11-23T09:11:43.325Z,9.32
2023-11-23T09:14:58.333Z,10.45
2023-11-23T09:18:12.096Z,9.95
2023-11-23T09:21:25.368Z,8.95
2023-11-23T09:24:39.132Z,8.73
2023-11-23T09:27:52.904Z,10.63
2023-11-23T09:31:05.417Z,10.13
2023-11-23T09:34:19.009Z,11.68
2023-11-23T09:37:31.545Z,9.90
2023-11-23T09:40:44.291Z,11.02
2023-11-23T09:43:56.734Z,11.05
2023-11-23T09:47:10.495Z,10.43
2023-11-23T09:50:23.179Z,10.20
2023-11-23T09:53:36.092Z,10.65
2023-11-23T09:56:48.702Z,10.52
2023-11-23T10:00:01.483Z,9.75
2023-11-23T10:03:15.651Z,9.77
2023-11-23T10:06:28.667Z,9.75
2023-11-23T10:09:42.094Z,10.90
2023-11-23T10:12:57.917Z,9.75
2023-11-23T10:16:13.547Z,9.38
2023-11-23T10:19:26.436Z,9.15
2023-11-23T10:22:50.907Z,10.23
2023-11-23T10:26:03.886Z,9.93
2023-11-23T10:29:16.387Z,8.60
2023-11-23T10:32:32.206Z,9.55
2023-11-23T10:35:53.939Z,8.85
2023-11-23T10:39:07.421Z,10.27
2023-11-23T10:42:20.657Z,9.52
2023-11-23T10:45:36.788Z,9.65
2023-11-23T10:48:50.058Z,8.75
2023-11-23T10:52:04.611Z,9.43
2023-11-23T10:55:17.201Z,8.30
2023-11-23T10:58:30.686Z,9.52
2023-11-23T11:01:43.312Z,9.48
2023-11-23T11:04:59.482Z,9.63
2023-11-23T11:08:12.069Z,9.45
2023-11-23T11:11:25.938Z,9.88
2023-11-23T11:14:39.384Z,9.52
2023-11-23T11:17:52.957Z,9.88
2023-11-23T11:21:08.976Z,9.45
2023-11-23T11:24:23.156Z,9.10
2023-11-23T11:27:35.991Z,9.73
2023-11-23T11:30:48.833Z,9.13
2023-11-23T11:34:02.164Z,9.68
2023-11-23T11:37:14.914Z,9.80
2023-11-23T11:40:28.766Z,9.77
2023-11-23T11:43:41.489Z,10.65
2023-11-23T11:46:54.011Z,8.38
2023-11-23T11:50:07.134Z,7.57
2023-11-23T11:53:20.114Z,9.15
2023-11-23T11:56:32.877Z,7.72
2023-11-23T11:59:45.390Z,9.82
2023-11-23T12:02:58.772Z,8.80
2023-11-23T12:06:11.824Z,10.40
2023-11-23T12:09:34.351Z,9.32
2023-11-23T12:12:52.080Z,8.32
2023-11-23T12:16:04.682Z,8.18
2023-11-23T12:19:20.916Z,10.43
2023-11-23T12:22:33.770Z,8.43
2023-11-23T12:25:46.994Z,9.57
2023-11-23T12:29:02.767Z,9.30
2023-11-23T12:32:16.270Z,8.07
2023-11-23T12:35:29.872Z,9.00
2023-11-23T12:38:43.197Z,8.73
2023-11-23T12:41:55.807Z,9.63
2023-11-23T12:45:10.063Z,8.70
2023-11-23T12:48:22.658Z,8.93
2023-11-23T12:51:36.471Z,8.70
2023-11-23T12:56:15.780Z,7.80
2023-11-23T12:59:28.637Z,8.25
2023-11-23T13:02:41.633Z,8.27
2023-11-23T13:05:55.712Z,8.00
2023-11-23T13:09:16.885Z,7.93
2023-11-23T13:12:30.104Z,7.25
2023-11-23T13:15:42.628Z,7.90
2023-11-23T13:19:11.001Z,7.93
2023-11-23T13:22:27.906Z,7.50
2023-11-23T13:25:40.602Z,8.18
2023-11-23T13:28:58.453Z,8.88
2023-11-23T13:32:11.804Z,8.32
2023-11-23T13:35:28.849Z,8.50
2023-11-23T13:41:53.736Z,10.77
2023-11-23T13:45:09.214Z,9.02
2023-11-23T13:48:21.707Z,8.38
2023-11-23T13:51:35.305Z,9.15
2023-11-23T13:54:49.113Z,8.57
2023-11-23T13:58:02.089Z,9.13
2023-11-23T14:01:16.776Z,9.63
2023-11-23T14:04:30.059Z,10.15
2023-11-23T14:07:42.483Z,9.40
2023-11-23T14:10:55.121Z,9.00
2023-11-23T14:14:09.504Z,9.20
2023-11-23T14:17:23.607Z,9.82
2023-11-23T14:20:36.925Z,9.95
2023-11-23T14:23:51.120Z,10.70
2023-11-23T14:27:03.959Z,9.85
2023-11-23T14:30:20.103Z,10.70
2023-11-23T14:33:32.617Z,11.02
2023-11-23T14:36:45.742Z,11.25
2023-11-23T14:39:58.721Z,9.63
2023-11-23T14:43:13.037Z,10.20
2023-11-23T14:46:25.475Z,10.80
2023-11-23T14:49:39.402Z,10.13
2023-11-23T14:52:52.199Z,8.35
2023-11-23T14:56:05.241Z,8.40
2023-11-23T14:59:18.038Z,9.23
2023-11-23T15:02:32.475Z,8.48
2023-11-23T15:05:46.992Z,8.75
2023-11-23T15:08:59.746Z,9.05
2023-11-23T15:12:15.357Z,7.47
2023-11-23T15:15:31.566Z,8.80
2023-11-23T15:18:46.165Z,8.23
2023-11-23T15:22:03.526Z,8.75
2023-11-23T15:25:15.977Z,8.15
2023-11-23T15:28:28.700Z,7.75
2023-11-23T15:31:41.331Z,7.80
2023-11-23T15:34:54.380Z,9.13
2023-11-23T15:38:06.732Z,9.52
2023-11-23T15:41:19.496Z,9.63
2023-11-23T15:44:32.663Z,10.18
2023-11-23T15:47:45.428Z,8.80
2023-11-23T15:50:58.439Z,8.55
2023-11-23T15:54:11.547Z,12.10
2023-11-23T15:57:24.063Z,11.02
2023-11-23T16:00:37.210Z,9.02
2023-11-23T16:03:50.946Z,9.10
2023-11-23T16:07:04.022Z,8.95
2023-11-23T16:10:16.756Z,8.70
2023-11-23T16:13:29.160Z,8.27
2023-11-23T16:16:42.762Z,9.95
2023-11-23T16:19:55.848Z,9.32
2023-11-23T16:23:10.039Z,10.23
2023-11-23T16:26:22.447Z,10.73
2023-11-23T16:29:35.138Z,11.45
2023-11-23T16:32:47.578Z,13.77
2023-11-23T16:36:00.441Z,10.77
2023-11-23T16:39:18.795Z,11.07
2023-11-23T16:42:32.138Z,11.18
2023-11-23T16:45:46.041Z,12.48
2023-11-23T16:48:59.043Z,11.43
2023-11-23T16:52:11.801Z,10.70
2023-11-23T16:55:25.975Z,9.95
2023-11-23T16:58:40.005Z,9.00
2023-11-23T17:01:52.860Z,10.38
2023-11-23T17:05:10.307Z,10.38
2023-11-23T17:08:23.821Z,9.48
2023-11-23T17:11:36.612Z,10.68
2023-11-23T17:14:49.330Z,11.20
2023-11-23T17:18:01.787Z,11.18
2023-11-23T17:21:14.503Z,10.57
2023-11-23T17:24:28.662Z,20.08
2023-11-23T17:27:42.932Z,14.25
2023-11-23T17:30:56.192Z,14.70
2023-11-23T17:34:09.488Z,13.00
2023-11-23T17:37:21.920Z,12.02
2023-11-23T17:40:34.625Z,9.35
2023-11-23T17:43:52.211Z,10.63
2023-11-23T17:47:07.435Z,12.70
2023-11-23T17:50:20.164Z,11.27
2023-11-23T17:53:32.858Z,11.85
2023-11-23T17:56:45.338Z,10.50
2023-11-23T17:59:58.108Z,9.57
2023-11-23T18:03:12.339Z,8.80
2023-11-23T18:06:25.132Z,9.32
2023-11-23T18:09:37.780Z,9.63
2023-11-23T18:12:50.589Z,8.95
2023-11-23T18:16:04.361Z,9.68
2023-11-23T18:19:17.297Z,9.10
2023-11-23T18:22:30.126Z,11.82
2023-11-23T18:25:44.662Z,11.60
2023-11-23T18:28:57.123Z,10.63
2023-11-23T18:32:14.708Z,11.90
2023-11-23T18:35:28.174Z,10.77
2023-11-23T18:38:41.117Z,10.02
2023-11-23T18:41:53.569Z,9.20
2023-11-23T18:45:07.054Z,10.70
2023-11-23T18:48:19.566Z,10.23
2023-11-23T18:51:32.497Z,10.02
2023-11-23T18:54:45.878Z,10.77
2023-11-23T18:57:58.662Z,11.02
2023-11-23T19:01:11.145Z,11.88
2023-11-23T19:04:24.562Z,10.75
2023-11-23T19:07:37.068Z,11.15
2023-11-23T19:10:49.917Z,11.20
2023-11-23T19:14:02.397Z,10.75
2023-11-23T19:17:15.386Z,10.10
2023-11-23T19:20:27.885Z,10.48
2023-11-23T19:23:40.941Z,10.80
2023-11-23T19:26:53.929Z,11.63
2023-11-23T19:30:08.883Z,12.45
2023-11-23T19:33:22.105Z,11.57
2023-11-23T19:36:35.409Z,11.45
2023-11-23T19:39:48.717Z,11.43
2023-11-23T19:43:02.064Z,12.00
2023-11-23T19:46:15.008Z,11.48
2023-11-23T19:49:28.140Z,11.57
2023-11-23T19:52:43.699Z,10.80
2023-11-23T19:55:56.378Z,12.15
2023-11-23T19:59:08.775Z,12.35
2023-11-23T20:02:21.603Z,12.15
2023-11-23T20:05:34.372Z,11.68
2023-11-23T20:08:47.272Z,12.30
2023-11-23T20:12:00.085Z,11.73
2023-11-23T20:15:13.214Z,10.43
2023-11-23T20:18:26.202Z,11.02
2023-11-23T20:21:39.960Z,10.43
2023-11-23T20:24:52.878Z,10.13
2023-11-23T20:28:06.495Z,11.82
2023-11-23T20:31:19.242Z,11.55
2023-11-23T20:34:32.456Z,10.88
2023-11-23T20:37:46.106Z,11.32
2023-11-23T20:40:58.705Z,9.45
2023-11-23T20:44:11.478Z,10.75
2023-11-23T20:47:24.194Z,11.05
2023-11-23T20:50:36.891Z,10.43
2023-11-23T20:53:51.726Z,10.70
2023-11-23T20:57:05.328Z,9.73
2023-11-23T21:00:18.148Z,10.80
2023-11-23T21:03:31.193Z,11.00
2023-11-23T21:06:55.913Z,9.40
2023-11-23T21:10:14.655Z,9.32
2023-11-23T21:13:28.592Z,9.18
2023-11-23T21:16:41.736Z,8.68
2023-11-23T21:19:54.149Z,9.57
2023-11-23T21:23:06.832Z,10.13
2023-11-23T21:26:20.265Z,9.27
2023-11-23T21:29:32.960Z,11.75
2023-11-23T21:32:45.453Z,10.35
2023-11-23T21:35:59.084Z,10.32
2023-11-23T21:39:12.855Z,10.25
2023-11-23T21:42:25.741Z,11.77
2023-11-23T21:45:38.198Z,11.55
2023-11-23T21:48:52.919Z,13.02
2023-11-23T21:52:05.420Z,12.30
2023-11-23T21:55:18.149Z,13.20
2023-11-23T21:58:31.194Z,12.80
2023-11-23T22:01:44.046Z,11.77
2023-11-23T22:04:56.737Z,11.02
2023-11-23T22:08:09.153Z,11.32
2023-11-23T22:11:21.861Z,11.25
2023-11-23T22:14:34.250Z,12.25
2023-11-23T22:17:47.353Z,12.65
2023-11-23T22:20:59.910Z,11.23
2023-11-23T22:24:13.627Z,11.70
2023-11-23T22:27:27.020Z,11.70
2023-11-23T22:30:40.067Z,12.40
2023-11-23T22:33:52.829Z,11.77
2023-11-23T22:37:05.820Z,11.18
2023-11-23T22:40:19.046Z,9.80
2023-11-23T22:43:32.011Z,11.12
2023-11-23T22:46:44.882Z,10.80
2023-11-23T22:49:57.578Z,9.68
2023-11-23T22:53:10.654Z,11.27
2023-11-23T22:56:23.628Z,10.77
2023-11-23T22:59:36.244Z,11.10
2023-11-23T23:02:49.302Z,11.02
2023-11-23T23:06:03.140Z,10.82
2023-11-23T23:09:16.660Z,10.50
2023-11-23T23:12:29.963Z,12.10
2023-11-23T23:15:42.695Z,11.77
2023-11-23T23:18:55.291Z,11.48
2023-11-23T23:22:16.941Z,10.93
2023-11-23T23:25:36.571Z,10.50
2023-11-23T23:28:49.296Z,10.18
2023-11-23T23:32:01.653Z,11.38
2023-11-23T23:35:14.328Z,12.85
2023-11-23T23:38:26.705Z,14.98
2023-11-23T23:41:39.415Z,15.40
2023-11-23T23:44:54.361Z,14.60
2023-11-23T23:48:07.723Z,12.82
2023-11-23T23:51:20.150Z,11.82
2023-11-23T23:54:32.889Z,12.68
2023-11-23T23:57:45.725Z,14.25
